Tropical Cyclones
[Index]
Main Index Home Page Stock Weather Photos Extreme Storms Discussion Storm News and Storm Chasing Reports Tropical Cyclones / Hurricanes / Typhoons Weather Data and Links Wild Fires / Bushfires Weather Observation Techniques Weather Picture Catalogue Tornado Pictures and Reports Stock Video Footage and DVDs for sale
Season 1997-1998 Tropical Cyclone 199801 Track Map
Season 1997-1998 Summaries: [BoM-AU] [JTWC-AU] [JTWC-SIO] [JTWC-SPAC] [JTWC-SH]
<<- Previous TC | JTWC 1997-1998 Season | Next TC ->>

click for intensity scale information  Lat/long Grid: Show Hide

 Date Labels: Show Hide

Joint Typhoon Warning Centre Cyclone Data

Name: 199801

18 Jul 1997 00:00 UTC to 24 Jul 1997 18:00 UTC

    date/time    lat    long     hPa   cat  kts
1997-07-18 00    3.8    78.7                  15          
1997-07-18 06    3.8    78.6                  15          
1997-07-18 12    3.9    78.4                  20          
1997-07-18 18    4.0    78.2                  25          
1997-07-19 00    4.1    78.0                  30          
1997-07-19 06    4.3    77.8                  35          
1997-07-19 12    4.5    77.6                  25          
1997-07-19 18    4.8    77.3                  25          
1997-07-20 00    5.3    76.9                  25          
1997-07-20 06    5.8    76.7                  25          
1997-07-20 12    6.2    76.6                  30          
1997-07-20 18    6.5    76.4                  35          
1997-07-21 00    6.8    76.2            1     40          
1997-07-21 06    7.1    76.1            1     45          
1997-07-21 12    7.5    75.9            1     45          
1997-07-21 18    7.8    75.8            1     45          
1997-07-22 00    8.2    75.7            1     45          
1997-07-22 06    8.5    75.7            1     45          
1997-07-22 12    8.9    75.5            1     45          
1997-07-22 18    9.2    75.2            1     45          
1997-07-23 00    9.5    74.9            1     40          
1997-07-23 06    9.5    74.5            1     40          
1997-07-23 12    9.3    74.0            1     40          
1997-07-23 18    9.1    73.4            1     40          
1997-07-24 00    8.9    72.7                  35          
1997-07-24 06    9.0    71.9                  30          
1997-07-24 12    9.4    71.2                  25          
1997-07-24 18    9.8    70.4                  25          
Winds are 1-min average.

Tropical cyclone tracks developed by Michael Bath using data from the Joint Typhoon Warning Centre Best Tracks and Google Maps.


[Australian Severe Weather index] [Copyright Notice] [Email Contacts] [Search This Site] [Privacy Policy]
Document: tropical_cyclone_199801.htm Updated: 18 September 2016